createdAt,value
2022-12-14T00:00:34.993Z,95046.13
2022-12-14T00:03:03.441Z,95040.47
2022-12-14T00:05:33.251Z,95024.88
2022-12-14T00:08:02.063Z,95024.34
2022-12-14T00:10:30.804Z,95021.75
2022-12-14T00:13:10.082Z,95003.53
2022-12-14T00:15:38.860Z,95013.13
2022-12-14T00:18:07.582Z,95001.16
2022-12-14T00:20:37.467Z,94999.78
2022-12-14T00:23:05.856Z,95000.63
2022-12-14T00:25:34.527Z,95004.84
2022-12-14T00:28:02.895Z,95000.03
2022-12-14T00:30:31.236Z,94999.69
2022-12-14T00:32:59.559Z,94996.56
2022-12-14T00:35:27.939Z,94995.22
2022-12-14T00:37:57.609Z,94987.38
2022-12-14T00:40:26.005Z,94979.28
2022-12-14T00:42:54.836Z,94971.09
2022-12-14T00:45:23.150Z,94975.56
2022-12-14T00:47:51.475Z,94975.56
2022-12-14T00:50:20.188Z,94964.63
2022-12-14T00:52:48.489Z,94958.44
2022-12-14T00:55:18.382Z,94954.47
2022-12-14T00:57:46.713Z,94962.72
2022-12-14T01:00:15.847Z,94977.28
2022-12-14T01:02:44.390Z,94984.63
2022-12-14T01:05:12.821Z,94986.41
2022-12-14T01:07:41.360Z,94989.25
2022-12-14T01:10:10.476Z,94987.75
2022-12-14T01:12:40.598Z,94982.03
2022-12-14T01:15:09.794Z,94981.16
2022-12-14T01:17:38.175Z,94986.47
2022-12-14T01:20:07.798Z,94993.88
2022-12-14T01:22:36.150Z,94999.56
2022-12-14T01:25:05.696Z,95003.56
2022-12-14T01:27:34.794Z,94993.34
2022-12-14T01:30:04.928Z,94992.75
2022-12-14T01:32:33.340Z,94992.00
2022-12-14T01:35:01.720Z,94997.06
2022-12-14T01:37:30.251Z,94994.19
2022-12-14T01:39:58.555Z,94994.91
2022-12-14T01:42:26.932Z,94994.19
2022-12-14T01:44:58.330Z,94989.72
2022-12-14T01:47:39.203Z,94988.56
2022-12-14T01:50:13.887Z,94995.75
2022-12-14T01:52:45.108Z,94999.78
2022-12-14T01:55:18.379Z,94998.44
2022-12-14T01:57:50.425Z,94985.88
2022-12-14T02:00:18.838Z,94979.66
2022-12-14T02:02:52.968Z,94984.38
2022-12-14T02:05:23.604Z,94990.97
2022-12-14T02:07:55.800Z,94982.75
2022-12-14T02:10:26.211Z,94974.63
2022-12-14T02:13:00.448Z,94978.72
2022-12-14T02:15:29.343Z,94967.97
2022-12-14T02:17:59.440Z,94967.50
2022-12-14T02:20:35.191Z,94980.53
2022-12-14T02:23:43.028Z,94981.91
2022-12-14T02:26:53.977Z,94982.63
2022-12-14T02:29:56.263Z,94983.13
2022-12-14T02:32:50.467Z,94985.34
2022-12-14T02:35:28.064Z,94979.47
2022-12-14T02:38:08.905Z,94999.66
2022-12-14T02:40:42.237Z,95001.28
2022-12-14T02:43:23.777Z,95001.53
2022-12-14T02:46:01.071Z,94994.81
2022-12-14T02:48:37.447Z,94993.91
2022-12-14T02:51:13.824Z,94994.50
2022-12-14T02:53:48.865Z,94992.22
2022-12-14T02:56:23.553Z,94983.06
2022-12-14T02:58:53.790Z,94981.31
2022-12-14T03:01:27.185Z,94972.44
2022-12-14T03:03:55.883Z,94958.09
2022-12-14T03:06:27.004Z,94935.47
2022-12-14T03:08:59.607Z,94930.91
2022-12-14T03:11:32.683Z,94944.53
2022-12-14T03:14:07.871Z,94961.28
2022-12-14T03:16:43.361Z,94970.41
2022-12-14T03:19:17.040Z,94961.81
2022-12-14T03:21:48.661Z,94936.00
2022-12-14T03:24:22.183Z,94929.34
2022-12-14T03:26:55.835Z,94939.94
2022-12-14T03:29:29.000Z,94941.91
2022-12-14T03:32:02.044Z,94936.13
2022-12-14T03:34:37.152Z,94932.44
2022-12-14T03:37:11.904Z,94921.63
2022-12-14T03:39:43.453Z,94909.91
2022-12-14T03:42:19.764Z,94897.34
2022-12-14T03:44:58.429Z,94899.69
2022-12-14T03:47:47.151Z,94896.19
2022-12-14T03:50:19.723Z,94905.47
2022-12-14T03:52:56.140Z,94901.84
2022-12-14T03:55:30.749Z,94893.94
2022-12-14T03:58:15.665Z,94893.75
2022-12-14T04:00:50.921Z,94891.25
2022-12-14T04:03:30.139Z,94888.56
2022-12-14T04:06:04.560Z,94879.75
2022-12-14T04:08:39.704Z,94876.13
2022-12-14T04:11:41.055Z,94867.31
2022-12-14T04:14:32.140Z,94870.72
2022-12-14T04:17:21.166Z,94862.84
2022-12-14T04:19:55.040Z,94868.38
2022-12-14T04:22:27.835Z,94862.25
2022-12-14T04:25:17.747Z,94867.91
2022-12-14T04:27:50.611Z,94856.63
2022-12-14T04:30:18.351Z,94865.22
2022-12-14T04:32:51.663Z,94866.63
2022-12-14T04:35:27.331Z,94865.66
2022-12-14T04:38:00.840Z,94864.63
2022-12-14T04:40:33.933Z,94869.44
2022-12-14T04:43:07.072Z,94872.72
2022-12-14T04:45:41.705Z,94863.78
2022-12-14T04:48:19.379Z,94870.50
2022-12-14T04:50:54.634Z,94878.69
2022-12-14T04:53:27.070Z,94876.22
2022-12-14T04:56:05.306Z,94880.47
2022-12-14T04:58:37.706Z,94874.22
2022-12-14T05:01:21.055Z,94865.44
2022-12-14T05:03:54.775Z,94868.84
2022-12-14T05:06:31.960Z,94871.19
2022-12-14T05:09:14.984Z,94865.88
2022-12-14T05:11:54.254Z,94864.84
2022-12-14T05:14:34.669Z,94856.84
2022-12-14T05:17:08.751Z,94858.38
2022-12-14T05:19:38.781Z,94858.13
2022-12-14T05:22:09.634Z,94854.72
2022-12-14T05:24:38.032Z,94855.53
2022-12-14T05:27:06.932Z,94851.88
2022-12-14T05:29:35.709Z,94852.94
2022-12-14T05:32:04.566Z,94850.03
2022-12-14T05:34:33.000Z,94840.50
2022-12-14T05:37:01.362Z,94838.63
2022-12-14T05:39:31.116Z,94835.94
2022-12-14T05:41:59.504Z,94841.78
2022-12-14T05:44:27.823Z,94831.34
2022-12-14T05:46:56.249Z,94834.63
2022-12-14T05:49:25.255Z,94829.56
2022-12-14T05:51:53.619Z,94829.34
2022-12-14T05:54:21.969Z,94818.31
2022-12-14T05:56:51.608Z,94825.22
2022-12-14T05:59:20.061Z,94818.44
2022-12-14T06:01:51.100Z,94798.69
2022-12-14T06:04:20.186Z,94800.06
2022-12-14T06:06:48.804Z,94800.78
2022-12-14T06:09:17.737Z,94795.25
2022-12-14T06:11:47.177Z,94794.06
2022-12-14T06:14:17.430Z,94798.06
2022-12-14T06:16:47.256Z,94801.34
2022-12-14T06:19:16.311Z,94795.25
2022-12-14T06:21:45.069Z,94800.53
2022-12-14T06:24:14.487Z,94799.72
2022-12-14T06:26:43.079Z,94796.06
2022-12-14T06:29:17.881Z,94798.53
2022-12-14T06:31:49.175Z,94796.88
2022-12-14T06:34:22.207Z,94800.25
2022-12-14T06:36:53.233Z,94794.84
2022-12-14T06:39:21.582Z,94790.50
2022-12-14T06:41:51.464Z,94785.31
2022-12-14T06:44:21.330Z,94788.63
2022-12-14T06:46:49.817Z,94775.56
2022-12-14T06:49:18.572Z,94783.78
2022-12-14T06:51:47.491Z,94790.59
2022-12-14T06:54:16.748Z,94791.28
2022-12-14T06:56:46.291Z,94787.53
2022-12-14T06:59:15.902Z,94784.78
2022-12-14T07:01:50.049Z,94790.66
2022-12-14T07:04:21.516Z,94785.38
2022-12-14T07:06:50.185Z,94778.31
2022-12-14T07:09:19.446Z,94771.25
2022-12-14T07:11:50.959Z,94770.31
2022-12-14T07:14:19.275Z,94769.22
2022-12-14T07:16:49.322Z,94769.94
2022-12-14T07:19:18.665Z,94766.28
2022-12-14T07:21:47.008Z,94771.19
2022-12-14T07:24:15.410Z,94774.06
2022-12-14T07:26:43.832Z,94762.03
2022-12-14T07:29:14.640Z,94760.16
2022-12-14T07:31:42.971Z,94758.03
2022-12-14T07:34:14.586Z,94751.53
2022-12-14T07:36:43.823Z,94743.38
2022-12-14T07:39:14.361Z,94740.66
2022-12-14T07:41:42.887Z,94737.09
2022-12-14T07:44:11.683Z,94742.16
2022-12-14T07:46:41.167Z,94738.38
2022-12-14T07:49:09.773Z,94734.56
2022-12-14T07:51:42.084Z,94723.97
2022-12-14T07:54:12.761Z,94725.34
2022-12-14T07:56:43.329Z,94717.19
2022-12-14T07:59:14.887Z,94708.38
2022-12-14T08:01:44.167Z,94696.94
2022-12-14T08:04:14.839Z,94707.16
2022-12-14T08:06:44.598Z,94706.75
2022-12-14T08:09:13.014Z,94690.00
2022-12-14T08:11:41.737Z,94690.56
2022-12-14T08:14:17.001Z,94695.50
2022-12-14T08:16:46.063Z,94699.34
2022-12-14T08:19:14.900Z,94687.22
2022-12-14T08:21:46.356Z,94694.97
2022-12-14T08:24:16.806Z,94676.97
2022-12-14T08:26:49.157Z,94689.34
2022-12-14T08:29:18.870Z,94688.44
2022-12-14T08:31:47.949Z,94688.84
2022-12-14T08:34:22.050Z,94671.41
2022-12-14T08:36:51.836Z,94661.47
2022-12-14T08:39:20.361Z,94658.63
2022-12-14T08:41:48.763Z,94652.22
2022-12-14T08:44:18.786Z,94662.31
2022-12-14T08:46:47.635Z,94655.25
2022-12-14T08:49:16.242Z,94643.78
2022-12-14T08:51:44.601Z,94654.94
2022-12-14T08:54:14.314Z,94654.00
2022-12-14T08:56:42.705Z,94660.69
2022-12-14T08:59:24.705Z,94652.09
2022-12-14T09:02:00.023Z,94647.59
2022-12-14T09:04:28.696Z,94636.16
2022-12-14T09:06:57.564Z,94633.16
2022-12-14T09:09:27.410Z,94636.03
2022-12-14T09:11:55.832Z,94641.34
2022-12-14T09:14:24.188Z,94643.56
2022-12-14T09:16:52.780Z,94641.34
2022-12-14T09:19:21.112Z,94635.63
2022-12-14T09:21:49.680Z,94658.44
2022-12-14T09:24:20.096Z,94639.72
2022-12-14T09:26:49.895Z,94630.72
2022-12-14T09:29:20.503Z,94634.53
2022-12-14T09:31:48.902Z,94633.00
2022-12-14T09:34:17.356Z,94617.84
2022-12-14T09:36:46.015Z,94601.06
2022-12-14T09:39:15.113Z,94596.28
2022-12-14T09:42:00.995Z,94596.13
2022-12-14T09:44:43.934Z,94602.00
2022-12-14T09:47:16.767Z,94589.28
2022-12-14T09:49:50.388Z,94587.69
2022-12-14T09:52:21.915Z,94586.69
2022-12-14T09:54:52.399Z,94588.91
2022-12-14T09:57:29.249Z,94581.91
2022-12-14T09:59:58.111Z,94573.84
2022-12-14T10:02:41.617Z,94561.25
2022-12-14T10:05:25.471Z,94557.16
2022-12-14T10:08:04.689Z,94541.94
2022-12-14T10:10:41.771Z,94540.56
2022-12-14T10:13:21.999Z,94539.84
2022-12-14T10:15:58.738Z,94534.06
2022-12-14T10:19:01.094Z,94527.66
2022-12-14T10:21:49.821Z,94518.28
2022-12-14T10:24:22.939Z,94511.03
2022-12-14T10:26:53.138Z,94515.41
2022-12-14T10:29:36.662Z,94517.56
2022-12-14T10:32:17.164Z,94513.44
2022-12-14T10:34:45.838Z,94502.59
2022-12-14T10:37:26.024Z,94509.13
2022-12-14T10:40:28.884Z,94504.47
2022-12-14T10:43:15.708Z,94485.00
2022-12-14T10:45:52.926Z,94481.19
2022-12-14T10:48:40.855Z,94466.91
2022-12-14T10:51:15.377Z,94468.53
2022-12-14T10:53:48.868Z,94484.13
2022-12-14T10:56:23.235Z,94488.38
2022-12-14T10:59:26.763Z,94485.31
2022-12-14T11:02:03.629Z,94479.00
2022-12-14T11:04:35.176Z,94477.38
2022-12-14T11:07:06.715Z,94477.38
2022-12-14T11:09:35.585Z,94482.72
2022-12-14T11:12:07.638Z,94487.38
2022-12-14T11:14:37.818Z,94479.91
2022-12-14T11:17:31.627Z,94485.63
2022-12-14T11:20:15.833Z,94479.72
2022-12-14T11:22:46.801Z,94485.53
2022-12-14T11:25:29.558Z,94497.44
2022-12-14T11:27:59.267Z,94490.44
2022-12-14T11:30:30.041Z,94496.75
2022-12-14T11:32:59.910Z,94473.94
2022-12-14T11:35:28.342Z,94468.25
2022-12-14T11:38:00.662Z,94479.31
2022-12-14T11:40:29.173Z,94474.53
2022-12-14T11:43:03.744Z,94471.94
2022-12-14T11:45:34.652Z,94466.31
2022-12-14T11:48:20.569Z,94448.19
2022-12-14T11:50:50.818Z,94455.09
2022-12-14T11:53:21.492Z,94462.31
2022-12-14T11:55:56.872Z,94459.09
2022-12-14T11:58:30.044Z,94445.63
2022-12-14T12:01:03.335Z,94427.28
2022-12-14T12:03:37.414Z,94418.88
2022-12-14T12:06:22.537Z,94408.84
2022-12-14T12:12:12.605Z,94410.84
2022-12-14T12:14:41.155Z,94410.47
2022-12-14T12:17:20.057Z,94402.66
2022-12-14T12:19:52.374Z,94408.38
2022-12-14T12:22:22.076Z,94417.50
2022-12-14T12:25:24.177Z,94425.16
2022-12-14T12:27:55.279Z,94440.63
2022-12-14T12:30:28.585Z,94444.03
2022-12-14T12:33:03.905Z,94448.88
2022-12-14T12:35:39.098Z,94444.28
2022-12-14T12:38:13.501Z,94448.66
2022-12-14T12:40:53.192Z,94447.34
2022-12-14T12:43:27.072Z,94441.19
2022-12-14T12:45:59.421Z,94434.03
2022-12-14T12:48:33.488Z,94436.03
2022-12-14T12:51:08.270Z,94444.34
2022-12-14T12:53:43.881Z,94447.75
2022-12-14T12:56:15.692Z,94430.50
2022-12-14T12:58:52.408Z,94424.22
2022-12-14T13:01:27.241Z,94429.09
2022-12-14T13:03:59.357Z,94420.84
2022-12-14T13:06:32.874Z,94411.25
2022-12-14T13:09:07.323Z,94413.69
2022-12-14T13:11:40.625Z,94402.97
2022-12-14T13:14:19.196Z,94389.66
2022-12-14T13:16:48.642Z,94399.59
2022-12-14T13:19:49.254Z,94392.16
2022-12-14T13:22:16.474Z,94372.66
2022-12-14T13:24:51.800Z,94369.09
2022-12-14T13:27:40.666Z,94368.63
2022-12-14T13:30:31.081Z,94362.94
2022-12-14T13:33:20.637Z,94362.63
2022-12-14T13:36:18.357Z,94364.44
2022-12-14T13:39:08.177Z,94357.16
2022-12-14T13:41:43.934Z,94359.50
2022-12-14T13:44:34.757Z,94355.59
2022-12-14T13:47:21.779Z,94366.41
2022-12-14T13:50:34.283Z,94369.66
2022-12-14T13:52:47.940Z,94367.97
2022-12-14T13:55:31.232Z,94365.63
2022-12-14T13:58:11.030Z,94374.59
2022-12-14T14:00:55.105Z,94360.88
2022-12-14T14:03:46.751Z,94370.34
2022-12-14T14:06:36.858Z,94380.69
2022-12-14T14:09:38.701Z,94369.84
2022-12-14T14:12:31.939Z,94368.25
2022-12-14T14:15:17.921Z,94373.72
2022-12-14T14:17:53.261Z,94363.03
2022-12-14T14:20:43.031Z,94383.75
2022-12-14T14:23:47.654Z,94385.31
2022-12-14T14:26:27.336Z,94404.31
2022-12-14T14:29:27.674Z,94404.69
2022-12-14T14:32:01.146Z,94419.91
2022-12-14T14:34:46.157Z,94400.50
2022-12-14T14:37:31.406Z,94425.81
2022-12-14T14:40:21.662Z,94439.25
2022-12-14T14:43:00.368Z,94435.00
2022-12-14T14:45:35.728Z,94454.91
2022-12-14T14:48:11.791Z,94454.25
2022-12-14T14:50:43.480Z,94457.50
2022-12-14T14:53:28.959Z,94464.19
2022-12-14T14:56:35.548Z,94465.00
2022-12-14T14:59:43.276Z,94467.25
2022-12-14T15:02:33.160Z,94480.13
2022-12-14T15:05:33.365Z,94488.88
2022-12-14T15:07:51.847Z,94507.75
2022-12-14T15:10:29.555Z,94505.09
2022-12-14T15:13:02.583Z,94513.56
2022-12-14T15:15:37.205Z,94508.97
2022-12-14T15:18:23.258Z,94507.50
2022-12-14T15:20:57.511Z,94514.66
2022-12-14T15:23:28.081Z,94522.47
2022-12-14T15:25:58.965Z,94535.78
2022-12-14T15:28:28.101Z,94529.13
2022-12-14T15:30:58.605Z,94531.88
2022-12-14T15:33:34.361Z,94525.19
2022-12-14T15:36:08.214Z,94528.25
2022-12-14T15:38:38.180Z,94526.78
2022-12-14T15:41:13.984Z,94539.94
2022-12-14T15:43:44.723Z,94530.66
2022-12-14T15:46:17.348Z,94537.81
2022-12-14T15:48:47.269Z,94542.38
2022-12-14T15:51:19.480Z,94555.53
2022-12-14T15:53:50.893Z,94548.00
2022-12-14T15:56:27.786Z,94542.16
2022-12-14T15:58:58.560Z,94543.28
2022-12-14T16:01:31.701Z,94538.06
2022-12-14T16:04:05.608Z,94550.09
2022-12-14T16:06:39.274Z,94542.47
2022-12-14T16:09:17.000Z,94555.50
2022-12-14T16:11:49.591Z,94557.25
2022-12-14T16:14:24.286Z,94563.28
2022-12-14T16:16:53.157Z,94564.91
2022-12-14T16:19:28.757Z,94570.13
2022-12-14T16:22:12.120Z,94565.72
2022-12-14T16:24:58.086Z,94567.66
2022-12-14T16:27:28.802Z,94574.66
2022-12-14T16:30:19.173Z,94575.31
2022-12-14T16:32:50.416Z,94570.94
2022-12-14T16:35:22.935Z,94575.31
2022-12-14T16:37:53.808Z,94584.94
2022-12-14T16:40:35.043Z,94564.91
2022-12-14T16:43:05.313Z,94564.09
2022-12-14T16:46:10.413Z,94577.13
2022-12-14T16:48:42.113Z,94591.75
2022-12-14T16:51:58.777Z,94595.34
2022-12-14T16:54:30.243Z,94595.50
2022-12-14T16:57:02.317Z,94591.94
2022-12-14T16:59:42.924Z,94594.53
2022-12-14T17:02:27.927Z,94600.22
2022-12-14T17:04:58.398Z,94585.13
2022-12-14T17:07:31.621Z,94594.44
2022-12-14T17:10:00.319Z,94586.44
2022-12-14T17:12:28.706Z,94599.19
2022-12-14T17:14:59.955Z,94592.53
2022-12-14T17:17:33.254Z,94595.34
2022-12-14T17:20:02.677Z,94593.09
2022-12-14T17:22:33.983Z,94589.06
2022-12-14T17:25:02.668Z,94577.22
2022-12-14T17:27:31.352Z,94568.13
2022-12-14T17:30:02.231Z,94578.38
2022-12-14T17:32:31.316Z,94573.16
2022-12-14T17:35:00.398Z,94579.69
2022-12-14T17:37:35.789Z,94570.59
2022-12-14T17:40:07.799Z,94566.19
2022-12-14T17:42:39.139Z,94586.09
2022-12-14T17:45:18.222Z,94587.69
2022-12-14T17:47:46.673Z,94584.78
2022-12-14T17:50:16.196Z,94599.13
2022-12-14T17:52:44.773Z,94597.69
2022-12-14T17:55:19.426Z,94604.09
2022-12-14T17:57:48.647Z,94609.28
2022-12-14T18:00:36.032Z,94619.72
2022-12-14T18:03:05.264Z,94612.25
2022-12-14T18:05:34.417Z,94612.75
2022-12-14T18:08:02.891Z,94619.13
2022-12-14T18:10:32.823Z,94619.47
2022-12-14T18:13:02.343Z,94627.00
2022-12-14T18:15:32.720Z,94625.19
2022-12-14T18:18:01.125Z,94634.97
2022-12-14T18:20:29.565Z,94641.94
2022-12-14T18:22:58.109Z,94643.75
2022-12-14T18:25:31.692Z,94647.00
2022-12-14T18:28:03.189Z,94646.56
2022-12-14T18:30:38.847Z,94647.03
2022-12-14T18:33:14.540Z,94650.16
2022-12-14T18:35:43.815Z,94648.06
2022-12-14T18:38:12.200Z,94659.97
2022-12-14T18:40:41.900Z,94662.25
2022-12-14T18:43:18.019Z,94670.75
2022-12-14T18:45:46.401Z,94676.47
2022-12-14T18:48:15.404Z,94685.94
2022-12-14T18:50:43.941Z,94699.28
2022-12-14T18:53:15.200Z,94699.25
2022-12-14T18:55:44.619Z,94697.44
2022-12-14T18:58:18.119Z,94684.03
2022-12-14T19:00:47.350Z,94684.50
2022-12-14T19:03:16.248Z,94691.97
2022-12-14T19:05:45.765Z,94711.50
2022-12-14T19:08:14.712Z,94703.97
2022-12-14T19:10:46.080Z,94700.72
2022-12-14T19:13:25.091Z,94699.38
2022-12-14T19:15:54.864Z,94710.81
2022-12-14T19:18:23.281Z,94719.59
2022-12-14T19:20:51.633Z,94723.31
2022-12-14T19:23:20.503Z,94729.63
2022-12-14T19:25:49.031Z,94735.31
2022-12-14T19:28:34.079Z,94730.25
2022-12-14T19:31:03.191Z,94736.44
2022-12-14T19:33:32.351Z,94736.44
2022-12-14T19:36:01.353Z,94731.38
2022-12-14T19:38:29.968Z,94745.09
2022-12-14T19:41:01.239Z,94739.72
2022-12-14T19:43:31.817Z,94753.41
2022-12-14T19:46:00.505Z,94764.66
2022-12-14T19:48:28.892Z,94765.53
2022-12-14T19:50:57.277Z,94758.91
2022-12-14T19:53:25.654Z,94755.16
2022-12-14T19:55:54.085Z,94754.19
2022-12-14T19:58:24.968Z,94752.41
2022-12-14T20:00:54.863Z,94743.59
2022-12-14T20:03:23.966Z,94753.72
2022-12-14T20:05:54.041Z,94765.63
2022-12-14T20:08:22.779Z,94760.41
2022-12-14T20:10:52.723Z,94773.47
2022-12-14T20:13:21.436Z,94769.22
2022-12-14T20:15:50.872Z,94775.41
2022-12-14T20:18:21.582Z,94777.88
2022-12-14T20:20:50.576Z,94782.94
2022-12-14T20:23:19.315Z,94797.59
2022-12-14T20:25:47.696Z,94791.41
2022-12-14T20:28:16.220Z,94791.56
2022-12-14T20:30:45.545Z,94789.78
2022-12-14T20:33:14.553Z,94794.03
2022-12-14T20:35:44.292Z,94793.03
2022-12-14T20:38:12.941Z,94809.34
2022-12-14T20:40:41.298Z,94803.31
2022-12-14T20:43:09.668Z,94798.91
2022-12-14T20:45:39.327Z,94798.41
2022-12-14T20:48:08.721Z,94800.34
2022-12-14T20:50:37.851Z,94810.09
2022-12-14T20:53:07.927Z,94816.00
2022-12-14T20:55:36.638Z,94821.06
2022-12-14T20:58:05.068Z,94814.03
2022-12-14T21:00:33.452Z,94815.84
2022-12-14T21:03:01.957Z,94815.84
2022-12-14T21:05:30.569Z,94822.03
2022-12-14T21:07:58.980Z,94821.06
2022-12-14T21:10:28.818Z,94829.69
2022-12-14T21:12:56.297Z,94834.09
2022-12-14T21:15:24.699Z,94836.69
2022-12-14T21:17:59.473Z,94839.31
2022-12-14T21:20:27.862Z,94842.06
2022-12-14T21:22:56.234Z,94839.63
2022-12-14T21:25:24.627Z,94838.78
2022-12-14T21:27:54.378Z,94844.19
2022-12-14T21:30:22.742Z,94847.75
2022-12-14T21:32:51.106Z,94841.88
2022-12-14T21:35:19.568Z,94843.81
2022-12-14T21:37:48.135Z,94846.41
2022-12-14T21:40:36.588Z,94850.81
2022-12-14T21:43:05.423Z,94854.38
2022-12-14T21:45:34.687Z,94861.38
2022-12-14T21:48:03.108Z,94863.84
2022-12-14T21:50:31.464Z,94865.63
2022-12-14T21:52:59.868Z,94863.00
2022-12-14T21:55:28.376Z,94864.00
2022-12-14T21:58:14.315Z,94867.72
2022-12-14T22:00:45.168Z,94854.84
2022-12-14T22:03:13.939Z,94841.81
2022-12-14T22:05:42.367Z,94835.75
2022-12-14T22:08:10.733Z,94845.38
2022-12-14T22:10:39.181Z,94842.75
2022-12-14T22:13:07.505Z,94850.72
2022-12-14T22:15:36.834Z,94843.09
2022-12-14T22:18:06.843Z,94850.91
2022-12-14T22:20:35.747Z,94847.44
2022-12-14T22:23:04.160Z,94851.72
2022-12-14T22:25:32.581Z,94859.53
2022-12-14T22:28:00.910Z,94863.94
2022-12-14T22:30:31.914Z,94871.59
2022-12-14T22:33:00.534Z,94879.25
2022-12-14T22:35:30.349Z,94875.84
2022-12-14T22:38:00.033Z,94880.25
2022-12-14T22:40:28.404Z,94880.25
2022-12-14T22:42:57.172Z,94888.88
2022-12-14T22:45:26.660Z,94889.69
2022-12-14T22:47:55.183Z,94895.88
2022-12-14T22:50:23.550Z,94907.25
2022-12-14T22:52:53.238Z,94907.25
2022-12-14T22:55:22.312Z,94902.19
2022-12-14T22:57:50.919Z,94891.75
2022-12-14T23:00:19.255Z,94888.34
2022-12-14T23:02:49.006Z,94891.75
2022-12-14T23:05:18.308Z,94890.94
2022-12-14T23:07:47.431Z,94884.94
2022-12-14T23:10:35.012Z,94876.31
2022-12-14T23:13:20.987Z,94886.88
2022-12-14T23:16:06.967Z,94881.00
2022-12-14T23:18:53.251Z,94892.22
2022-12-14T23:21:39.774Z,94894.84
2022-12-14T23:24:26.233Z,94886.19
2022-12-14T23:27:13.458Z,94879.47
2022-12-14T23:29:59.343Z,94884.88
2022-12-14T23:32:45.309Z,94888.44
2022-12-14T23:35:31.348Z,94892.81
2022-12-14T23:38:22.685Z,94889.41
2022-12-14T23:41:08.790Z,94876.53
2022-12-14T23:43:55.798Z,94878.28
2022-12-14T23:46:41.709Z,94882.69
2022-12-14T23:49:27.761Z,94872.25
2022-12-14T23:52:13.624Z,94866.25
2022-12-14T23:54:59.783Z,94874.88
2022-12-14T23:57:45.712Z,94875.00
